createdAt,value
2018-04-27T00:00:04.633Z,15.4
2018-04-27T00:15:04.659Z,15.4
2018-04-27T00:30:05.327Z,15.4
2018-04-27T00:45:04.940Z,14.8
2018-04-27T01:00:04.707Z,15
2018-04-27T01:15:05.240Z,14.7
2018-04-27T01:30:04.562Z,14.6
2018-04-27T01:45:05.273Z,14.6
2018-04-27T02:00:05.086Z,13.9
2018-04-27T02:15:04.773Z,14.1
2018-04-27T02:30:04.821Z,13.9
2018-04-27T02:45:04.603Z,13.6
2018-04-27T03:00:05.311Z,13.7
2018-04-27T03:15:04.298Z,13.5
2018-04-27T03:30:04.637Z,13
2018-04-27T03:45:05.321Z,13.1
2018-04-27T04:00:05.094Z,12.7
2018-04-27T04:15:04.573Z,12.7
2018-04-27T04:30:04.946Z,12.7
2018-04-27T04:45:04.994Z,12.4
2018-04-27T05:00:04.890Z,12.6
2018-04-27T05:15:04.658Z,12.6
2018-04-27T05:30:05.079Z,12.8
2018-04-27T05:45:05.468Z,13
2018-04-27T06:00:05.642Z,13.9
2018-04-27T06:15:04.746Z,14.2
2018-04-27T06:30:04.941Z,14.5
2018-04-27T06:45:04.935Z,14.6
2018-04-27T07:00:05.582Z,15
2018-04-27T07:15:04.978Z,15.6
2018-04-27T07:30:04.661Z,16.2
2018-04-27T07:45:04.719Z,17.2
2018-04-27T08:00:04.708Z,18
2018-04-27T08:15:05.123Z,18.7
2018-04-27T08:30:04.320Z,20.3
2018-04-27T08:45:05.155Z,20.4
2018-04-27T09:00:05.677Z,21.5
2018-04-27T09:15:04.883Z,22.2
2018-04-27T09:30:04.441Z,22.2
2018-04-27T09:45:05.068Z,22.6
2018-04-27T10:00:04.898Z,22.7
2018-04-27T10:15:05.006Z,22.4
2018-04-27T10:30:04.995Z,22.1
2018-04-27T10:45:05.139Z,21.7
2018-04-27T11:00:05.297Z,22
2018-04-27T11:15:04.759Z,21.9
2018-04-27T11:30:04.861Z,22.1
2018-04-27T11:45:04.633Z,22.1
2018-04-27T12:00:04.782Z,22.2
2018-04-27T12:15:04.736Z,22.5
2018-04-27T12:30:05.244Z,22.6
2018-04-27T12:45:05.064Z,22.8
2018-04-27T13:00:04.921Z,23.2
2018-04-27T13:15:04.474Z,23.3
2018-04-27T13:30:04.813Z,22.8
2018-04-27T13:45:04.667Z,23.4
2018-04-27T14:00:05.205Z,23.4
2018-04-27T14:15:04.373Z,23.7
2018-04-27T14:30:05.055Z,23.9
2018-04-27T14:45:04.604Z,24.3
2018-04-27T15:00:05.079Z,24.2
2018-04-27T15:15:04.542Z,24.4
2018-04-27T15:30:05.221Z,24.6
2018-04-27T15:45:04.247Z,24.9
2018-04-27T16:00:05.312Z,24.7
2018-04-27T16:15:04.837Z,24.7
2018-04-27T16:30:04.596Z,24.8
2018-04-27T16:45:04.879Z,25
2018-04-27T17:00:04.892Z,24.7
2018-04-27T17:15:04.921Z,24.7
2018-04-27T17:30:05.168Z,24.6
2018-04-27T17:45:05.154Z,24.7
2018-04-27T18:00:05.200Z,24.7
2018-04-27T18:15:05.036Z,24.3
2018-04-27T18:30:04.282Z,24
2018-04-27T18:45:04.557Z,23.7
2018-04-27T19:00:04.548Z,23.3
2018-04-27T19:15:04.525Z,23
2018-04-27T19:30:04.707Z,22.7
2018-04-27T19:45:05.198Z,22.5
2018-04-27T20:00:05.233Z,22.5
2018-04-27T20:15:05.200Z,22.3
2018-04-27T20:30:04.433Z,22.2
2018-04-27T20:45:04.405Z,21.7
2018-04-27T21:00:04.499Z,21.4
2018-04-27T21:15:04.584Z,20.8
2018-04-27T21:30:04.937Z,20.6
2018-04-27T21:45:05.128Z,20.3
2018-04-27T22:00:05.097Z,19.9
2018-04-27T22:15:05.022Z,19.8
2018-04-27T22:30:04.609Z,19.1
2018-04-27T22:45:04.672Z,19.1
2018-04-27T23:00:05.140Z,18.7
2018-04-27T23:15:04.649Z,17.9
2018-04-27T23:30:04.856Z,18.2
2018-04-27T23:45:04.809Z,18.1
